Latest Coastal Weather Observations for Ulladulla

IDN60701

Issued at 8:03 am EDT Monday 2 March 2015 (issued every 10 minutes, with the page automatically refreshed every 10 minutes)

About coastal observations | Map of coastal stations | Coastal observations for NSW | Marine services | Other Formats
Station Details ID: 069138 Name: ULLADULLA AWS Lat: -35.36 Lon: 150.48 Height: 35.7 m
Data from the previous 72 hours. | See also: Recent months at Ulladulla
Date/Time
EDT
Temp

°C
Wind Pressure Rain
since 9am
mm
Weather Cloud Vis
km
Sea
Height
m
Swell
Dir
 
Speed
knots
Gust
knots
hPa Trend Height
m
Period
s
Dir
02/08:00am 16.7 SW 6 9 1019.4 - 2.8 - - - - - - -
02/07:30am 15.5 WSW 5 8 1019.2 - 2.8 - - - - - - -
02/07:00am 14.4 WSW 5 7 1018.9 - 2.8 - - - - - - -
02/06:30am 14.5 WSW 5 8 1018.6 - 2.8 - - - - - - -
02/06:00am 14.7 SW 6 9 1018.3 - 2.8 - - - - - - -
02/05:30am 14.8 SW 5 10 1018.0 - 2.8 - - - - - - -
02/05:00am 15.1 SW 7 10 1018.1 - 2.8 - - - - - - -
02/04:30am 15.4 SW 7 10 1017.7 - 2.8 - - - - - - -
02/04:00am 15.6 SW 7 12 1017.3 - 2.8 - - - - - - -
02/03:30am 15.7 SW 7 11 1017.7 - 2.8 - - - - - - -
02/03:00am 16.2 SW 6 9 1017.7 - 2.8 - - - - - - -
02/02:30am 17.2 SW 8 16 1017.8 - 2.8 - - - - - - -
02/02:00am 18.2 S 14 20 1017.8 - 2.8 - - - - - - -
02/01:30am 18.3 S 18 22 1017.9 - 2.8 - - - - - - -
02/01:00am 18.5 S 20 25 1017.6 - 2.8 - - - - - - -
02/12:30am 18.5 S 17 25 1017.5 - 2.8 - - - - - - -
02/12:00am 18.7 S 18 26 1017.5 - 2.8 - - - - - - -
 
Date/Time
EDT
Temp

°C
Wind Pressure Rain
since 9am
mm
Weather Cloud Vis
km
Sea
Height
m
Swell
Dir
 
Speed
knots
Gust
knots
hPa Trend Height
m
Period
s
Dir
01/11:30pm 18.9 S 15 21 1017.5 - 2.8 - - - - - - -
01/11:00pm 19.0 S 16 22 1017.3 - 2.8 - - - - - - -
01/10:30pm 19.3 S 17 25 1017.2 - 2.8 - - - - - - -
01/10:00pm 19.7 S 21 28 1016.7 - 2.8 - - - - - - -
01/09:30pm 19.8 S 21 29 1016.0 - 2.8 - - - - - - -
01/09:00pm 19.8 S 21 30 1015.6 - 2.8 - - - - - - -
01/08:30pm 19.8 S 19 27 1014.8 - 2.8 - - - - - - -
01/08:00pm 19.8 S 18 25 1014.0 - 2.8 - - - - - - -
01/07:30pm 19.8 S 17 23 1013.4 - 2.8 - - - - - - -
01/07:00pm 19.8 S 18 27 1012.9 - 2.8 - - - - - - -
01/06:30pm 19.6 S 18 25 1012.2 - 2.8 - - - - - - -
01/06:00pm 19.7 S 18 24 1011.7 - 2.8 - - - - - - -
01/05:30pm 19.8 S 21 26 1010.9 - 2.8 - - - - - - -
01/05:00pm 19.7 S 22 29 1010.3 - 2.8 - - - - - - -
01/04:53pm 19.8 S 23 33 1010.2 - 2.8 - - - - - - -
01/04:30pm 19.2 S 24 31 1009.9 - 2.8 - - - - - - -
01/04:00pm 18.1 S 24 31 1008.9 - 2.6 - - - - - - -
01/03:30pm 18.8 S 21 28 1009.2 - 0.4 - - - - - - -
01/03:00pm 20.0 S 13 19 1008.9 - 0.0 - - - - - - -
01/02:30pm 19.8 S 22 30 1008.3 - 0.0 - - - - - - -
01/02:27pm 19.8 S 25 35 1008.1 - 0.0 - - - - - - -
01/02:17pm 20.1 S 27 35 1007.7 - 0.0 - - - - - - -
01/02:07pm 20.7 SSW 16 26 1007.5 - 0.0 - - - - - - -
01/02:00pm 20.7 SSW 15 22 1007.7 - 0.0 - - - - - - -
01/01:30pm 21.7 SSW 15 21 1007.3 - 0.0 - - - - - - -
01/01:00pm 21.9 SSW 16 22 1006.9 - 0.0 - - - - - - -
01/12:30pm 22.4 SSW 17 26 1006.6 - 0.0 - - - - - - -
01/12:25pm 22.7 SSW 16 26 1006.6 - 0.0 - - - - - - -
01/12:00pm 22.6 SSW 13 17 1006.0 - 0.0 - - - - - - -
01/11:30am 22.3 SSW 9 14 1005.4 - 0.0 - - - - - - -
01/11:00am 23.8 S 7 11 1005.4 - 0.0 - - - - - - -
01/10:30am 22.8 S 7 10 1005.0 - 0.0 - - - - - - -
01/10:00am 23.0 S 7 10 1005.2 - 0.0 - - - - - - -
01/09:30am 22.9 S 6 8 1005.1 - 0.0 - - - - - - -
01/09:00am 23.9 SSW 2 4 1004.8 - 0.0 - - - - - - -
01/08:30am 22.1 S 2 4 1004.8 - 0.0 - - - - - - -
01/08:00am 22.1 N 5 8 1004.1 - 0.0 - - - - - - -
01/07:30am 21.1 NNE 4 6 1003.8 - 0.0 - - - - - - -
01/07:00am 20.7 N 4 6 1003.4 - 0.0 - - - - - - -
01/06:30am 20.8 NNW 5 7 1002.9 - 0.0 - - - - - - -
01/06:00am 20.8 NNW 3 7 1002.8 - 0.0 - - - - - - -
01/05:30am 20.9 NNE 2 6 1002.9 - 0.0 - - - - - - -
01/05:00am 21.0 NNW 4 6 1002.7 - 0.0 - - - - - - -
01/04:30am 20.9 N 5 8 1002.9 - 0.0 - - - - - - -
01/04:00am 20.9 NNW 4 7 1002.9 - 0.0 - - - - - - -
01/03:30am 21.0 NNW 6 8 1003.2 - 0.0 - - - - - - -
01/03:00am 21.0 NNW 4 7 1003.6 - 0.0 - - - - - - -
01/02:30am 21.0 NNW 3 6 1003.7 - 0.0 - - - - - - -
01/02:00am 21.0 N 4 7 1004.1 - 0.0 - - - - - - -
01/01:30am 21.2 N 8 11 1004.6 - 0.0 - - - - - - -
01/01:00am 21.4 NNW 7 11 1004.9 - 0.0 - - - - - - -
01/12:30am 21.4 N 9 13 1005.3 - 0.0 - - - - - - -
01/12:00am 21.6 N 10 14 1005.5 - 0.0 - - - - - - -
 
Date/Time
EDT
Temp

°C
Wind Pressure Rain
since 9am
mm
Weather Cloud Vis
km
Sea
Height
m
Swell
Dir
 
Speed
knots
Gust
knots
hPa Trend Height
m
Period
s
Dir
28/11:30pm 21.6 N 4 7 1005.9 - 0.0 - - - - - - -
28/11:00pm 21.8 N 8 12 1006.2 - 0.0 - - - - - - -
28/10:30pm 22.0 N 9 13 1006.3 - 0.0 - - - - - - -
28/10:00pm 22.1 N 8 12 1006.5 - 0.0 - - - - - - -
28/09:30pm 22.1 NNW 6 9 1006.6 - 0.0 - - - - - - -
28/09:00pm 22.2 NNW 7 11 1006.5 - 0.0 - - - - - - -
28/08:30pm 22.3 NNW 6 10 1006.5 - 0.0 - - - - - - -
28/08:00pm 22.4 N 4 7 1006.3 - 0.0 - - - - - - -
28/07:30pm 22.7 N 3 6 1006.1 - 0.0 - - - - - - -
28/07:00pm 22.9 NNE 5 10 1005.9 - 0.0 - - - - - - -
28/06:30pm 23.3 NNE 6 11 1005.8 - 0.0 - - - - - - -
28/06:00pm 23.5 NE 7 11 1005.7 - 0.0 - - - - - - -
28/05:30pm 23.4 NE 9 16 1005.8 - 0.0 - - - - - - -
28/05:00pm 23.9 NE 12 17 1006.0 - 0.0 - - - - - - -
28/04:30pm 23.8 NE 11 16 1006.4 - 0.0 - - - - - - -
28/04:00pm 24.0 NE 14 19 1006.6 - 0.0 - - - - - - -
28/03:30pm 23.9 NE 11 16 1006.7 - 0.0 - - - - - - -
28/03:00pm 24.0 NE 13 17 1007.0 - 0.0 - - - - - - -
28/02:30pm 23.8 NE 12 17 1007.6 - 0.0 - - - - - - -
28/02:00pm 23.6 NE 9 13 1008.1 - 0.0 - - - - - - -
28/01:30pm 23.2 NE 8 12 1008.4 - 0.0 - - - - - - -
28/01:00pm 23.4 NE 5 9 1008.6 - 0.0 - - - - - - -
28/12:30pm 23.0 NNE 3 6 1008.8 - 0.0 - - - - - - -
28/12:00pm 22.6 NE 6 10 1009.1 - 0.0 - - - - - - -
28/11:30am 22.6 NNE 4 9 1009.4 - 0.0 - - - - - - -
28/11:00am 23.4 NNE 5 9 1009.7 - 0.0 - - - - - - -
28/10:30am 21.8 NE 4 7 1009.9 - 0.0 - - - - - - -
28/10:00am 22.4 N 3 5 1010.3 - 0.0 - - - - - - -
28/09:30am 21.3 N 3 6 1010.1 - 0.0 - - - - - - -
28/09:00am 20.7 N 3 4 1010.2 - 0.0 - - - - - - -
28/08:30am 20.8 N 3 4 1010.2 - 0.0 - - - - - - -
28/08:00am 19.6 NNW 3 4 1010.1 - 0.0 - - - - - - -
28/07:30am 19.1 NNW 3 3 1009.9 - 0.0 - - - - - - -
28/07:00am 18.9 NNW 2 3 1009.7 - 0.0 - - - - - - -
28/06:30am 19.4 NNW 2 3 1009.4 - 0.0 - - - - - - -
28/06:00am 18.9 NW 1 3 1009.2 - 0.0 - - - - - - -
28/05:30am 18.8 CALM 0 0 1009.0 - 0.0 - - - - - - -
28/05:00am 18.7 WSW 3 4 1009.1 - 0.0 - - - - - - -
28/04:30am 18.7 CALM 0 0 1009.1 - 0.0 - - - - - - -
28/04:00am 18.7 CALM 0 0 1009.1 - 0.0 - - - - - - -
28/03:30am 18.7 CALM 0 1 1009.4 - 0.0 - - - - - - -
28/03:00am 18.8 CALM 0 1 1009.4 - 0.0 - - - - - - -
28/02:30am 19.3 WNW 3 3 1009.3 - 0.0 - - - - - - -
28/02:00am 19.5 NNW 3 3 1009.4 - 0.0 - - - - - - -
28/01:30am 19.7 NW 2 3 1009.8 - 0.0 - - - - - - -
28/01:00am 19.5 CALM 0 0 1010.0 - 0.0 - - - - - - -
28/12:30am 19.6 NW 1 2 1010.3 - 0.0 - - - - - - -
28/12:00am 20.1 NNW 2 3 1010.4 - 0.0 - - - - - - -
 
Date/Time
EDT
Temp

°C
Wind Pressure Rain
since 9am
mm
Weather Cloud Vis
km
Sea
Height
m
Swell
Dir
 
Speed
knots
Gust
knots
hPa Trend Height
m
Period
s
Dir
27/11:30pm 19.9 CALM 0 0 1010.5 - 0.0 - - - - - - -
27/11:00pm 20.2 CALM 0 0 1010.7 - 0.0 - - - - - - -
27/10:30pm 20.5 CALM 0 0 1010.9 - 0.0 - - - - - - -
27/10:00pm 21.0 NNW 1 3 1010.8 - 0.0 - - - - - - -
27/09:30pm 21.3 NNW 2 4 1010.1 - 0.0 - - - - - - -
27/09:00pm 21.8 NNW 4 6 1009.9 - 0.0 - - - - - - -
27/08:30pm 22.0 NE 4 7 1009.5 - 0.0 - - - - - - -
27/08:00pm 22.2 NE 5 9 1009.1 - 0.0 - - - - - - -
27/07:30pm 22.3 NE 5 9 1008.6 - 0.0 - - - - - - -
27/07:00pm 22.5 NE 9 13 1008.3 - 0.0 - - - - - - -
27/06:30pm 22.6 NE 12 16 1008.3 - 0.0 - - - - - - -
27/06:00pm 22.8 NE 14 18 1008.1 - 0.0 - - - - - - -
27/05:30pm 23.0 NNE 13 17 1008.2 - 0.0 - - - - - - -
27/05:00pm 23.0 NNE 11 14 1008.2 - 0.0 - - - - - - -
27/04:30pm 23.4 NE 8 12 1008.3 - 0.0 - - - - - - -
27/04:00pm 23.6 NE 7 11 1008.7 - 0.0 - - - - - - -
27/03:30pm 23.8 NE 8 11 1009.0 - 0.0 - - - - - - -
27/03:00pm 24.0 ENE 6 10 1009.5 - 0.0 - - - - - - -
27/02:30pm 23.9 NE 6 11 1009.9 - 0.0 - - - - - - -
27/02:00pm 23.9 NE 7 11 1010.1 - 0.0 - - - - - - -
27/01:30pm 23.5 NE 6 9 1010.4 - 0.0 - - - - - - -
27/01:00pm 24.0 NE 6 9 1010.4 - 0.0 - - - - - - -
27/12:30pm 23.2 NNE 6 7 1010.7 - 0.0 - - - - - - -
27/12:00pm 23.0 NNE 4 6 1011.1 - 0.0 - - - - - - -
27/11:30am 22.7 NNE 4 5 1011.3 - 0.0 - - - - - - -
27/11:00am 22.9 N 3 5 1011.4 - 0.0 - - - - - - -
27/10:30am 23.1 NNE 3 5 1011.4 - 0.0 - - - - - - -
27/10:00am 22.4 NNE 3 4 1011.4 - 0.0 - - - - - - -
27/09:30am 22.1 N 2 3 1011.2 - 0.0 - - - - - - -
27/09:00am 22.0 NE 2 2 1011.1 - 0.0 - - - - - - -
27/08:30am 21.7 CALM 0 3 1011.2 - 0.0 - - - - - - -

Other Formats:

Comma delimited format used in spreadsheet applications
http://www.bom.gov.au/fwo/IDN60701/IDN60701.94938.axf

JavaScript Object Notation format (JSON) in row-major order
http://www.bom.gov.au/fwo/IDN60701/IDN60701.94938.json